createdAt,value
2023-02-11T00:05:18.398Z,20.1
2023-02-11T00:15:26.424Z,20.1
2023-02-11T00:25:33.101Z,20.1
2023-02-11T00:35:39.825Z,20
2023-02-11T00:45:46.642Z,20
2023-02-11T00:55:53.279Z,20
2023-02-11T01:06:01.266Z,20
2023-02-11T01:16:08.092Z,20
2023-02-11T01:26:14.678Z,20
2023-02-11T01:36:21.444Z,19.9
2023-02-11T01:46:29.484Z,19.9
2023-02-11T01:56:36.148Z,19.9
2023-02-11T02:06:42.861Z,19.9
2023-02-11T02:16:49.745Z,19.9
2023-02-11T02:26:56.301Z,19.9
2023-02-11T02:37:03.054Z,19.9
2023-02-11T02:47:09.759Z,19.8
2023-02-11T02:57:16.497Z,19.8
2023-02-11T03:07:23.214Z,19.8
2023-02-11T03:17:29.949Z,19.8
2023-02-11T03:27:36.666Z,19.8
2023-02-11T03:37:43.426Z,19.8
2023-02-11T03:47:50.108Z,19.8
2023-02-11T03:57:56.856Z,19.7
2023-02-11T04:08:03.559Z,19.7
2023-02-11T04:18:10.318Z,19.7
2023-02-11T04:28:17.086Z,19.7
2023-02-11T04:38:23.769Z,19.7
2023-02-11T04:48:30.467Z,19.7
2023-02-11T04:58:37.237Z,19.7
2023-02-11T05:08:43.930Z,19.7
2023-02-11T05:18:52.539Z,19.6
2023-02-11T05:28:57.401Z,19.6
2023-02-11T05:39:04.160Z,19.6
2023-02-11T05:49:10.913Z,19.6
2023-02-11T05:59:17.653Z,19.6
2023-02-11T06:09:25.583Z,19.6
2023-02-11T06:19:44.583Z,19.3
2023-02-11T06:29:52.502Z,19.6
2023-02-11T06:40:00.432Z,19.6
2023-02-11T06:50:08.290Z,19.5
2023-02-11T07:00:16.242Z,19.5
2023-02-11T07:10:24.141Z,19.5
2023-02-11T07:20:32.084Z,19.5
2023-02-11T07:30:40.131Z,19.5
2023-02-11T07:40:47.877Z,19.5
2023-02-11T07:50:55.778Z,19.5
2023-02-11T08:01:03.773Z,19.5
2023-02-11T08:11:11.629Z,19.5
2023-02-11T08:21:19.566Z,19.4
2023-02-11T08:31:27.608Z,19.4
2023-02-11T08:41:35.405Z,19.4
2023-02-11T08:51:43.303Z,19.4
2023-02-11T09:01:51.297Z,19.4
2023-02-11T09:11:59.132Z,19.4
2023-02-11T09:22:07.065Z,19.4
2023-02-11T09:32:15.153Z,19.4
2023-02-11T09:42:21.028Z,19.4
2023-02-11T09:52:27.042Z,19.4
2023-02-11T10:02:33.145Z,19.4
2023-02-11T10:12:39.214Z,19.3
2023-02-11T10:22:45.216Z,19.3
2023-02-11T10:32:51.242Z,19.3
2023-02-11T10:42:57.319Z,19.3
2023-02-11T10:53:03.313Z,19.3
2023-02-11T11:03:09.390Z,19.3
2023-02-11T11:13:15.384Z,19.3
2023-02-11T11:23:21.484Z,19.3
2023-02-11T11:33:27.482Z,19.3
2023-02-11T11:43:33.548Z,19.3
2023-02-11T11:53:39.561Z,19.3
2023-02-11T12:03:45.629Z,19.3
2023-02-11T12:13:51.660Z,19.3
2023-02-11T12:23:57.718Z,19.3
2023-02-11T12:34:03.736Z,19.2
2023-02-11T12:44:09.796Z,19.2
2023-02-11T12:54:15.829Z,19.2
2023-02-11T13:04:21.909Z,19.2
2023-02-11T13:14:27.920Z,19.2
2023-02-11T13:24:34.025Z,19.2
2023-02-11T13:34:39.984Z,19.2
2023-02-11T13:44:46.066Z,19.2
2023-02-11T13:54:52.109Z,19.2
2023-02-11T14:04:58.136Z,19.2
2023-02-11T14:15:07.399Z,19.2
2023-02-11T14:25:10.225Z,19.2
2023-02-11T14:35:16.265Z,19.2
2023-02-11T14:45:22.350Z,19.2
2023-02-11T14:55:28.343Z,19.2
2023-02-11T15:05:34.407Z,19.2
2023-02-11T15:15:40.490Z,19.2
2023-02-11T15:25:46.515Z,19.1
2023-02-11T15:35:52.510Z,19.1
2023-02-11T15:45:58.614Z,19.1
2023-02-11T15:56:04.605Z,19.1
2023-02-11T16:06:10.661Z,19.1
2023-02-11T16:16:16.762Z,19.1
2023-02-11T16:26:22.749Z,19.1
2023-02-11T16:36:28.769Z,19.1
2023-02-11T16:46:34.955Z,19.1
2023-02-11T16:56:40.840Z,19.1
2023-02-11T17:06:46.926Z,19.1
2023-02-11T17:16:52.925Z,19.1
2023-02-11T17:26:58.999Z,19.1
2023-02-11T17:37:05.003Z,19.1
2023-02-11T17:47:11.067Z,19.1
2023-02-11T17:57:17.107Z,19.1
2023-02-11T18:07:23.164Z,19.1
2023-02-11T18:17:29.197Z,19.1
2023-02-11T18:27:35.262Z,19
2023-02-11T18:37:41.275Z,19
2023-02-11T18:47:47.385Z,19
2023-02-11T18:57:53.375Z,19
2023-02-11T19:07:59.443Z,19
2023-02-11T19:18:05.495Z,19
2023-02-11T19:28:11.608Z,19
2023-02-11T19:38:17.543Z,19
2023-02-11T19:48:23.603Z,19
2023-02-11T19:58:29.620Z,19
2023-02-11T20:08:35.704Z,19
2023-02-11T20:18:41.712Z,19
2023-02-11T20:28:47.781Z,19
2023-02-11T20:38:53.792Z,19
2023-02-11T20:48:59.855Z,19
2023-02-11T20:59:05.865Z,19
2023-02-11T21:09:11.949Z,19
2023-02-11T21:19:17.976Z,19
2023-02-11T21:29:24.034Z,18.9
2023-02-11T21:39:30.082Z,18.9
2023-02-11T21:49:36.134Z,18.9
2023-02-11T21:59:42.182Z,18.9
2023-02-11T22:09:48.224Z,18.9
2023-02-11T22:19:54.248Z,18.9
2023-02-11T22:30:00.285Z,18.9
2023-02-11T22:40:06.316Z,18.9
2023-02-11T22:50:12.363Z,18.9
2023-02-11T23:00:18.377Z,18.9
2023-02-11T23:10:24.466Z,18.9
2023-02-11T23:20:30.467Z,18.9
2023-02-11T23:30:36.541Z,18.9
2023-02-11T23:40:42.572Z,18.9
2023-02-11T23:50:48.645Z,18.9
